createdAt,value
2019-03-16T00:00:47.236Z,0
2019-03-16T00:01:56.848Z,0
2019-03-16T00:02:59.687Z,0
2019-03-16T00:04:01.802Z,0
2019-03-16T00:05:04.192Z,0
2019-03-16T00:06:06.245Z,0
2019-03-16T00:07:08.262Z,0
2019-03-16T00:08:10.293Z,0
2019-03-16T00:09:12.317Z,0
2019-03-16T00:10:14.369Z,0
2019-03-16T00:11:16.395Z,0
2019-03-16T00:12:18.816Z,0
2019-03-16T00:13:20.876Z,0
2019-03-16T00:14:22.922Z,0
2019-03-16T00:15:24.963Z,0
2019-03-16T00:16:27.005Z,0
2019-03-16T00:17:29.318Z,0
2019-03-16T00:18:31.639Z,0
2019-03-16T00:19:33.963Z,0
2019-03-16T00:20:36.046Z,0
2019-03-16T00:21:38.364Z,0
2019-03-16T00:22:40.395Z,0
2019-03-16T00:23:42.436Z,0
2019-03-16T00:24:44.473Z,0
2019-03-16T00:25:46.557Z,0
2019-03-16T00:26:48.568Z,0
2019-03-16T00:27:51.003Z,0
2019-03-16T00:28:53.442Z,0
2019-03-16T00:29:55.479Z,0
2019-03-16T00:30:57.525Z,0
2019-03-16T00:32:12.532Z,0
2019-03-16T00:33:15.823Z,0
2019-03-16T00:34:18.230Z,0
2019-03-16T00:35:21.319Z,0
2019-03-16T00:36:23.351Z,0
2019-03-16T00:37:25.375Z,0
2019-03-16T00:38:27.419Z,0
2019-03-16T00:39:29.727Z,0
2019-03-16T00:40:31.769Z,0
2019-03-16T00:41:33.869Z,0
2019-03-16T00:42:36.004Z,0
2019-03-16T00:43:38.032Z,0
2019-03-16T00:44:40.074Z,0
2019-03-16T00:45:42.102Z,0
2019-03-16T00:46:44.182Z,0
2019-03-16T00:47:46.231Z,0
2019-03-16T00:48:48.633Z,0
2019-03-16T00:49:50.674Z,0
2019-03-16T00:50:52.719Z,0
2019-03-16T00:51:55.047Z,0
2019-03-16T00:52:57.125Z,0
2019-03-16T00:53:59.507Z,0
2019-03-16T00:55:01.915Z,0
2019-03-16T00:56:03.952Z,0
2019-03-16T00:57:05.994Z,0
2019-03-16T00:58:08.409Z,0
2019-03-16T00:59:10.443Z,0
2019-03-16T01:00:13.153Z,0
2019-03-16T01:01:15.175Z,0
2019-03-16T01:02:26.766Z,0
2019-03-16T01:03:29.598Z,0
2019-03-16T01:04:31.656Z,0
2019-03-16T01:05:33.960Z,0
2019-03-16T01:06:36.283Z,0
2019-03-16T01:07:38.304Z,0
2019-03-16T01:08:40.347Z,0
2019-03-16T01:09:43.667Z,0
2019-03-16T01:10:45.903Z,0
2019-03-16T01:11:47.961Z,0
2019-03-16T01:12:49.973Z,0
2019-03-16T01:13:52.011Z,0
2019-03-16T01:14:54.038Z,0
2019-03-16T01:15:56.145Z,0
2019-03-16T01:16:58.181Z,0
2019-03-16T01:18:00.590Z,0
2019-03-16T01:19:02.623Z,0
2019-03-16T01:20:05.040Z,0
2019-03-16T01:21:07.089Z,0
2019-03-16T01:22:09.111Z,0
2019-03-16T01:23:11.138Z,0
2019-03-16T01:24:13.262Z,0
2019-03-16T01:25:15.568Z,0
2019-03-16T01:26:17.593Z,0
2019-03-16T01:27:19.622Z,0
2019-03-16T01:28:21.722Z,0
2019-03-16T01:29:23.756Z,0
2019-03-16T01:30:26.067Z,0
2019-03-16T01:31:28.100Z,0
2019-03-16T01:32:39.879Z,0
2019-03-16T01:33:43.326Z,0
2019-03-16T01:34:45.361Z,0
2019-03-16T01:35:47.403Z,0
2019-03-16T01:36:49.445Z,0
2019-03-16T01:37:51.467Z,0
2019-03-16T01:38:53.529Z,0
2019-03-16T01:39:55.566Z,0
2019-03-16T01:40:57.693Z,0
2019-03-16T01:42:00.005Z,0
2019-03-16T01:43:02.101Z,0
2019-03-16T01:44:04.130Z,0
2019-03-16T01:45:06.173Z,0
2019-03-16T01:46:08.196Z,0
2019-03-16T01:47:10.517Z,0
2019-03-16T01:48:12.617Z,0
2019-03-16T01:49:14.686Z,0
2019-03-16T01:50:16.713Z,0
2019-03-16T01:51:18.749Z,0
2019-03-16T01:52:21.095Z,0
2019-03-16T01:53:23.505Z,0
2019-03-16T01:54:25.633Z,0
2019-03-16T01:55:27.657Z,0
2019-03-16T01:56:29.686Z,0
2019-03-16T01:57:31.723Z,0
2019-03-16T01:58:33.751Z,0
2019-03-16T01:59:35.781Z,0
2019-03-16T02:00:37.813Z,0
2019-03-16T02:01:39.863Z,0
2019-03-16T02:02:54.054Z,0
2019-03-16T02:03:57.872Z,0
2019-03-16T02:04:59.898Z,0
2019-03-16T02:06:02.480Z,0
2019-03-16T02:07:04.606Z,0
2019-03-16T02:08:06.915Z,0
2019-03-16T02:09:08.944Z,0
2019-03-16T02:10:10.986Z,0
2019-03-16T02:11:13.668Z,0
2019-03-16T02:12:15.700Z,0
2019-03-16T02:13:17.829Z,0
2019-03-16T02:14:19.872Z,0
2019-03-16T02:15:22.192Z,0
2019-03-16T02:16:24.791Z,0
2019-03-16T02:17:26.827Z,0
2019-03-16T02:18:28.930Z,0
2019-03-16T02:19:30.954Z,0
2019-03-16T02:20:36.728Z,0
2019-03-16T02:21:38.814Z,0
2019-03-16T02:22:42.027Z,0
2019-03-16T02:23:44.092Z,0
2019-03-16T02:24:46.415Z,0
2019-03-16T02:25:48.535Z,0
2019-03-16T02:26:50.629Z,0
2019-03-16T02:27:52.687Z,0
2019-03-16T02:28:54.989Z,0
2019-03-16T02:29:57.298Z,0
2019-03-16T02:30:59.333Z,0
2019-03-16T02:32:01.376Z,0
2019-03-16T02:33:12.164Z,0
2019-03-16T02:34:15.854Z,0
2019-03-16T02:35:18.174Z,0
2019-03-16T02:36:20.515Z,0
2019-03-16T02:37:22.554Z,0
2019-03-16T02:38:25.010Z,0
2019-03-16T02:39:27.319Z,0
2019-03-16T02:40:29.980Z,0
2019-03-16T02:41:32.343Z,0
2019-03-16T02:42:34.376Z,0
2019-03-16T02:43:37.395Z,0
2019-03-16T02:44:40.135Z,0
2019-03-16T02:45:42.190Z,0
2019-03-16T02:46:44.297Z,0
2019-03-16T02:47:46.738Z,0
2019-03-16T02:48:49.435Z,0
2019-03-16T02:49:51.483Z,0
2019-03-16T02:50:53.520Z,0
2019-03-16T02:51:56.108Z,0
2019-03-16T02:52:58.162Z,0
2019-03-16T02:54:00.615Z,0
2019-03-16T02:55:03.044Z,0
2019-03-16T02:56:05.100Z,0
2019-03-16T02:57:07.844Z,0
2019-03-16T02:58:09.892Z,0
2019-03-16T02:59:12.027Z,0
2019-03-16T03:00:14.091Z,0
2019-03-16T03:01:16.609Z,0
2019-03-16T03:02:18.860Z,0
2019-03-16T03:03:28.926Z,0
2019-03-16T03:04:32.234Z,0
2019-03-16T03:05:34.329Z,0
2019-03-16T03:06:36.758Z,0
2019-03-16T03:07:39.079Z,0
2019-03-16T03:08:41.843Z,0
2019-03-16T03:09:43.890Z,0
2019-03-16T03:10:46.218Z,0
2019-03-16T03:11:48.944Z,0
2019-03-16T03:12:51.574Z,0
2019-03-16T03:13:54.077Z,0
2019-03-16T03:14:56.136Z,0
2019-03-16T03:15:58.748Z,0
2019-03-16T03:17:00.808Z,0
2019-03-16T03:18:03.557Z,0
2019-03-16T03:19:06.125Z,0
2019-03-16T03:20:08.222Z,0
2019-03-16T03:21:10.567Z,0
2019-03-16T03:22:13.245Z,0
2019-03-16T03:23:15.554Z,0
2019-03-16T03:24:17.900Z,0
2019-03-16T03:25:20.457Z,0
2019-03-16T03:26:23.082Z,0
2019-03-16T03:27:25.160Z,0
2019-03-16T03:28:27.269Z,0
2019-03-16T03:29:30.017Z,0
2019-03-16T03:30:32.581Z,0
2019-03-16T03:31:34.739Z,0
2019-03-16T03:32:37.573Z,0
2019-03-16T03:33:58.405Z,0
2019-03-16T03:35:05.343Z,0
2019-03-16T03:36:08.008Z,0
2019-03-16T03:37:10.039Z,0
2019-03-16T03:38:12.339Z,0
2019-03-16T03:39:14.663Z,0
2019-03-16T03:40:17.333Z,0
2019-03-16T03:41:19.831Z,0
2019-03-16T03:42:21.887Z,0
2019-03-16T03:43:24.261Z,0
2019-03-16T03:44:26.582Z,0
2019-03-16T03:45:28.925Z,0
2019-03-16T03:46:32.437Z,0
2019-03-16T03:47:35.086Z,0
2019-03-16T03:48:37.530Z,0
2019-03-16T03:49:39.575Z,0
2019-03-16T03:50:41.614Z,0
2019-03-16T03:51:43.672Z,0
2019-03-16T03:52:46.497Z,0
2019-03-16T03:53:48.944Z,0
2019-03-16T03:54:51.356Z,0
2019-03-16T03:55:53.427Z,0
2019-03-16T03:56:56.504Z,0
2019-03-16T03:57:58.915Z,0
2019-03-16T03:59:01.300Z,0
2019-03-16T04:00:03.617Z,0
2019-03-16T04:01:06.076Z,0
2019-03-16T04:02:08.396Z,0
2019-03-16T04:03:11.487Z,0
2019-03-16T04:04:15.484Z,0
2019-03-16T04:05:18.317Z,0
2019-03-16T04:06:20.686Z,0
2019-03-16T04:07:23.315Z,0
2019-03-16T04:08:25.375Z,0
2019-03-16T04:09:27.404Z,0
2019-03-16T04:10:30.020Z,0
2019-03-16T04:11:32.479Z,0
2019-03-16T04:12:35.102Z,0
2019-03-16T04:13:38.128Z,0
2019-03-16T04:14:40.556Z,0
2019-03-16T04:15:42.625Z,0
2019-03-16T04:16:45.352Z,0
2019-03-16T04:17:47.391Z,0
2019-03-16T04:18:51.570Z,0
2019-03-16T04:19:54.684Z,0
2019-03-16T04:20:57.050Z,0
2019-03-16T04:21:59.107Z,0
2019-03-16T04:23:01.413Z,0
2019-03-16T04:24:04.417Z,0
2019-03-16T04:25:06.768Z,0
2019-03-16T04:26:09.089Z,0
2019-03-16T04:27:16.157Z,0
2019-03-16T04:28:18.942Z,0
2019-03-16T04:29:21.003Z,0
2019-03-16T04:30:23.047Z,0
2019-03-16T04:31:25.360Z,0
2019-03-16T04:32:27.730Z,0
2019-03-16T04:33:29.767Z,0
2019-03-16T04:34:31.814Z,0
2019-03-16T04:35:33.851Z,0
2019-03-16T04:36:35.921Z,0
2019-03-16T04:37:38.645Z,0
2019-03-16T04:38:40.973Z,0
2019-03-16T04:39:43.114Z,0
2019-03-16T04:40:45.144Z,0
2019-03-16T04:41:47.570Z,0
2019-03-16T04:42:49.661Z,0
2019-03-16T04:43:51.710Z,0
2019-03-16T04:44:54.030Z,0
2019-03-16T04:45:56.062Z,0
2019-03-16T04:46:58.177Z,0
2019-03-16T04:48:00.208Z,0
2019-03-16T04:49:02.236Z,0
2019-03-16T04:50:04.270Z,0
2019-03-16T04:51:06.613Z,0
2019-03-16T04:52:08.639Z,0
2019-03-16T04:53:11.054Z,0
2019-03-16T04:54:13.079Z,0
2019-03-16T04:55:15.136Z,0
2019-03-16T04:56:17.296Z,4
2019-03-16T04:57:19.368Z,4
2019-03-16T04:58:21.720Z,0
2019-03-16T04:59:23.843Z,4
2019-03-16T05:00:26.159Z,4
2019-03-16T05:01:28.461Z,4
2019-03-16T05:02:30.512Z,8
2019-03-16T05:03:32.539Z,8
2019-03-16T05:04:42.170Z,8
2019-03-16T05:05:44.907Z,8
2019-03-16T05:06:46.920Z,12
2019-03-16T05:07:48.967Z,16
2019-03-16T05:08:51.000Z,16
2019-03-16T05:09:53.369Z,20
2019-03-16T05:10:55.389Z,24
2019-03-16T05:11:57.483Z,32
2019-03-16T05:12:59.523Z,36
2019-03-16T05:14:01.544Z,44
2019-03-16T05:15:03.590Z,48
2019-03-16T05:16:05.607Z,56
2019-03-16T05:17:07.641Z,64
2019-03-16T05:18:09.757Z,80
2019-03-16T05:19:11.792Z,92
2019-03-16T05:20:13.817Z,108
2019-03-16T05:21:15.922Z,120
2019-03-16T05:22:17.944Z,140
2019-03-16T05:23:20.065Z,152
2019-03-16T05:24:22.106Z,172
2019-03-16T05:25:24.238Z,196
2019-03-16T05:26:26.618Z,220
2019-03-16T05:27:28.681Z,244
2019-03-16T05:28:30.704Z,268
2019-03-16T05:29:33.340Z,296
2019-03-16T05:30:35.376Z,316
2019-03-16T05:31:37.397Z,340
2019-03-16T05:32:39.821Z,376
2019-03-16T05:33:41.850Z,404
2019-03-16T05:34:55.807Z,436
2019-03-16T05:35:59.161Z,468
2019-03-16T05:37:02.260Z,496
2019-03-16T05:38:04.575Z,524
2019-03-16T05:39:07.291Z,560
2019-03-16T05:40:09.339Z,576
2019-03-16T05:41:11.660Z,600
2019-03-16T05:42:13.683Z,620
2019-03-16T05:43:15.705Z,648
2019-03-16T05:44:18.133Z,676
2019-03-16T05:45:20.157Z,716
2019-03-16T05:46:22.187Z,748
2019-03-16T05:47:24.223Z,756
2019-03-16T05:48:26.235Z,812
2019-03-16T05:49:28.299Z,884
2019-03-16T05:50:30.324Z,936
2019-03-16T05:51:32.625Z,964
2019-03-16T05:52:34.663Z,952
2019-03-16T05:53:36.703Z,952
2019-03-16T05:54:39.123Z,960
2019-03-16T05:55:41.169Z,1008
2019-03-16T05:56:43.200Z,1132
2019-03-16T05:57:45.611Z,1244
2019-03-16T05:58:47.719Z,1312
2019-03-16T05:59:50.060Z,1400
2019-03-16T06:00:52.076Z,1532
2019-03-16T06:01:54.109Z,1644
2019-03-16T06:02:56.135Z,1728
2019-03-16T06:03:58.162Z,1792
2019-03-16T06:05:10.171Z,1864
2019-03-16T06:06:13.796Z,1988
2019-03-16T06:07:15.827Z,1980
2019-03-16T06:08:17.847Z,1904
2019-03-16T06:09:19.872Z,1780
2019-03-16T06:10:21.982Z,1800
2019-03-16T06:11:24.018Z,1980
2019-03-16T06:12:26.044Z,2096
2019-03-16T06:13:28.091Z,2328
2019-03-16T06:14:30.507Z,2556
2019-03-16T06:15:32.532Z,2536
2019-03-16T06:16:34.554Z,2492
2019-03-16T06:17:36.597Z,2420
2019-03-16T06:18:38.620Z,2508
2019-03-16T06:19:40.956Z,2652
2019-03-16T06:20:42.992Z,2696
2019-03-16T06:21:45.003Z,2860
2019-03-16T06:22:47.351Z,2640
2019-03-16T06:23:49.385Z,2284
2019-03-16T06:24:51.499Z,2252
2019-03-16T06:25:53.805Z,2260
2019-03-16T06:26:55.855Z,2132
2019-03-16T06:27:58.169Z,2180
2019-03-16T06:29:00.590Z,2636
2019-03-16T06:30:02.624Z,2600
2019-03-16T06:31:04.650Z,2480
2019-03-16T06:32:06.987Z,2576
2019-03-16T06:33:09.028Z,2564
2019-03-16T06:34:11.053Z,3088
2019-03-16T06:35:23.680Z,3076
2019-03-16T06:36:31.382Z,3364
2019-03-16T06:37:33.406Z,3460
2019-03-16T06:38:35.452Z,3664
2019-03-16T06:39:38.068Z,3704
2019-03-16T06:40:40.092Z,3380
2019-03-16T06:41:43.492Z,3420
2019-03-16T06:42:45.664Z,3652
2019-03-16T06:43:47.985Z,3596
2019-03-16T06:44:50.372Z,3704
2019-03-16T06:45:52.416Z,3896
2019-03-16T06:46:54.991Z,4128
2019-03-16T06:47:57.323Z,4152
2019-03-16T06:48:59.434Z,4256
2019-03-16T06:50:01.780Z,4384
2019-03-16T06:51:03.805Z,4524
2019-03-16T06:52:05.838Z,4920
2019-03-16T06:53:07.877Z,5108
2019-03-16T06:54:09.906Z,5124
2019-03-16T06:55:11.951Z,5092
2019-03-16T06:56:13.976Z,5088
2019-03-16T06:57:16.108Z,5192
2019-03-16T06:58:18.145Z,5372
2019-03-16T06:59:20.181Z,5920
2019-03-16T07:00:22.208Z,6084
2019-03-16T07:01:24.238Z,6224
2019-03-16T07:02:26.642Z,6292
2019-03-16T07:03:28.674Z,6208
2019-03-16T07:04:31.087Z,6780
2019-03-16T07:05:37.950Z,6980
2019-03-16T07:06:41.223Z,7244
2019-03-16T07:07:43.271Z,7444
2019-03-16T07:08:45.300Z,7608
2019-03-16T07:09:47.329Z,7740
2019-03-16T07:10:49.368Z,7828
2019-03-16T07:11:51.382Z,7572
2019-03-16T07:12:53.418Z,6588
2019-03-16T07:13:55.449Z,6380
2019-03-16T07:14:57.482Z,6164
2019-03-16T07:15:59.562Z,6488
2019-03-16T07:17:02.556Z,6752
2019-03-16T07:18:04.671Z,6560
2019-03-16T07:19:06.696Z,6664
2019-03-16T07:20:08.754Z,7180
2019-03-16T07:21:10.776Z,7312
2019-03-16T07:22:12.814Z,7572
2019-03-16T07:23:14.928Z,7664
2019-03-16T07:24:18.092Z,7824
2019-03-16T07:25:20.128Z,8180
2019-03-16T07:26:22.545Z,8424
2019-03-16T07:27:26.281Z,8420
2019-03-16T07:28:28.614Z,8328
2019-03-16T07:29:30.636Z,8076
2019-03-16T07:30:33.052Z,7728
2019-03-16T07:31:38.722Z,8012
2019-03-16T07:32:40.755Z,8112
2019-03-16T07:33:42.781Z,8396
2019-03-16T07:34:44.807Z,8492
2019-03-16T07:35:47.108Z,8392
2019-03-16T07:36:49.165Z,8272
2019-03-16T07:37:51.202Z,8040
2019-03-16T07:38:53.907Z,8136
2019-03-16T07:39:55.925Z,7876
2019-03-16T07:40:58.001Z,7524
2019-03-16T07:42:00.788Z,7152
2019-03-16T07:43:02.879Z,7280
2019-03-16T07:44:04.915Z,7200
2019-03-16T07:45:08.337Z,7892
2019-03-16T07:46:11.113Z,7968
2019-03-16T07:47:13.150Z,8008
2019-03-16T07:48:15.191Z,7884
2019-03-16T07:49:17.212Z,8116
2019-03-16T07:50:19.266Z,8272
2019-03-16T07:51:21.303Z,8208
2019-03-16T07:52:23.340Z,8084
2019-03-16T07:53:25.387Z,7916
2019-03-16T07:54:27.409Z,8304
2019-03-16T07:55:32.936Z,8432
2019-03-16T07:56:34.962Z,8460
2019-03-16T07:57:40.294Z,8116
2019-03-16T07:58:43.590Z,8412
2019-03-16T07:59:45.903Z,8832
2019-03-16T08:00:47.934Z,9072
2019-03-16T08:01:50.689Z,8596
2019-03-16T08:02:53.027Z,8504
2019-03-16T08:03:55.440Z,8296
2019-03-16T08:04:57.758Z,8128
2019-03-16T08:05:59.790Z,8176
2019-03-16T08:07:01.841Z,8532
2019-03-16T08:08:03.886Z,7688
2019-03-16T08:09:06.442Z,6232
2019-03-16T08:10:09.163Z,6052
2019-03-16T08:11:11.766Z,7160
2019-03-16T08:12:13.809Z,7924
2019-03-16T08:13:16.145Z,8288
2019-03-16T08:14:18.201Z,8772
2019-03-16T08:15:20.318Z,8804
2019-03-16T08:16:22.641Z,8956
2019-03-16T08:17:24.754Z,8920
2019-03-16T08:18:26.810Z,9328
2019-03-16T08:19:29.128Z,11540
2019-03-16T08:20:31.547Z,12176
2019-03-16T08:21:34.143Z,12528
2019-03-16T08:22:36.187Z,12928
2019-03-16T08:23:38.227Z,13044
2019-03-16T08:24:40.271Z,13016
2019-03-16T08:25:42.339Z,12764
2019-03-16T08:26:44.360Z,12492
2019-03-16T08:27:53.850Z,11140
2019-03-16T08:28:59.084Z,12020
2019-03-16T08:30:01.754Z,13484
2019-03-16T08:31:04.172Z,14264
2019-03-16T08:32:06.212Z,13944
2019-03-16T08:33:08.633Z,13892
2019-03-16T08:34:10.659Z,14384
2019-03-16T08:35:12.717Z,14456
2019-03-16T08:36:14.743Z,14248
2019-03-16T08:37:16.777Z,14236
2019-03-16T08:38:19.110Z,13360
2019-03-16T08:39:21.271Z,13880
2019-03-16T08:40:23.346Z,14780
2019-03-16T08:41:25.376Z,15612
2019-03-16T08:42:27.421Z,17472
2019-03-16T08:43:29.450Z,17804
2019-03-16T08:44:31.861Z,18048
2019-03-16T08:45:33.902Z,18336
2019-03-16T08:46:35.947Z,18720
2019-03-16T08:47:37.964Z,19648
2019-03-16T08:48:40.109Z,18368
2019-03-16T08:49:42.148Z,19456
2019-03-16T08:50:44.235Z,23392
2019-03-16T08:51:46.359Z,24000
2019-03-16T08:52:48.474Z,21664
2019-03-16T08:53:50.527Z,20576
2019-03-16T08:54:52.555Z,24064
2019-03-16T08:55:54.619Z,23616
2019-03-16T08:56:56.649Z,30464
2019-03-16T08:58:05.813Z,27232
2019-03-16T08:59:08.463Z,24064
2019-03-16T09:00:10.498Z,23232
2019-03-16T09:01:12.616Z,20480
2019-03-16T09:02:14.703Z,19168
2019-03-16T09:03:16.738Z,22752
2019-03-16T09:04:19.051Z,21600
2019-03-16T09:05:21.158Z,22944
2019-03-16T09:06:23.199Z,20800
2019-03-16T09:07:25.299Z,17744
2019-03-16T09:08:27.365Z,17624
2019-03-16T09:09:30.003Z,24320
2019-03-16T09:10:32.324Z,18464
2019-03-16T09:11:34.438Z,26144
2019-03-16T09:12:36.551Z,22176
2019-03-16T09:13:38.606Z,31904
2019-03-16T09:14:40.634Z,35584
2019-03-16T09:15:42.663Z,28960
2019-03-16T09:16:44.710Z,30496
2019-03-16T09:17:46.756Z,35680
2019-03-16T09:18:48.957Z,30272
2019-03-16T09:19:50.998Z,35392
2019-03-16T09:20:53.027Z,22848
2019-03-16T09:21:55.062Z,22112
2019-03-16T09:22:57.125Z,31328
2019-03-16T09:24:00.071Z,21792
2019-03-16T09:25:02.126Z,34336
2019-03-16T09:26:04.434Z,35424
2019-03-16T09:27:07.211Z,22336
2019-03-16T09:28:17.993Z,24448
2019-03-16T09:29:21.099Z,27104
2019-03-16T09:30:23.128Z,23680
2019-03-16T09:31:25.161Z,27776
2019-03-16T09:32:27.208Z,42592
2019-03-16T09:33:29.227Z,25088
2019-03-16T09:34:31.309Z,34304
2019-03-16T09:35:33.364Z,34880
2019-03-16T09:36:35.404Z,37344
2019-03-16T09:37:37.747Z,37632
2019-03-16T09:38:39.802Z,34784
2019-03-16T09:39:42.148Z,22240
2019-03-16T09:40:44.174Z,20352
2019-03-16T09:41:46.230Z,22720
2019-03-16T09:42:48.260Z,23232
2019-03-16T09:43:50.297Z,21216
2019-03-16T09:44:52.363Z,24544
2019-03-16T09:45:54.415Z,25600
2019-03-16T09:46:56.453Z,29344
2019-03-16T09:47:58.536Z,24544
2019-03-16T09:49:00.565Z,24832
2019-03-16T09:50:02.614Z,35296
2019-03-16T09:51:04.668Z,28960
2019-03-16T09:52:06.708Z,25440
2019-03-16T09:53:08.731Z,22048
2019-03-16T09:54:10.787Z,19936
2019-03-16T09:55:12.839Z,18720
2019-03-16T09:56:15.233Z,19936
2019-03-16T09:57:17.288Z,16644
2019-03-16T09:58:30.604Z,15524
2019-03-16T10:01:08.202Z,20416
2019-03-16T10:02:10.336Z,21184
2019-03-16T10:03:12.451Z,22656
2019-03-16T10:04:14.887Z,19328
2019-03-16T10:05:17.014Z,19136
2019-03-16T10:06:19.454Z,19264
2019-03-16T10:07:21.588Z,19520
2019-03-16T10:08:23.696Z,17936
2019-03-16T10:09:26.098Z,17032
2019-03-16T10:10:29.085Z,16376
2019-03-16T10:11:31.224Z,15720
2019-03-16T10:12:33.348Z,14244
2019-03-16T10:13:35.479Z,13508
2019-03-16T10:14:37.609Z,14752
2019-03-16T10:15:39.752Z,14692
2019-03-16T10:16:42.286Z,12884
2019-03-16T10:17:44.435Z,10144
2019-03-16T10:18:46.629Z,10044
2019-03-16T10:19:48.753Z,12056
2019-03-16T10:20:50.936Z,13476
2019-03-16T10:21:53.075Z,13660
2019-03-16T10:22:55.216Z,13972
2019-03-16T10:23:57.622Z,13988
2019-03-16T10:25:00.021Z,13492
2019-03-16T10:26:02.617Z,12592
2019-03-16T10:27:04.760Z,12080
2019-03-16T10:28:06.870Z,12688
2019-03-16T10:29:09.054Z,13020
2019-03-16T10:30:11.171Z,13628
2019-03-16T10:31:13.626Z,14440
2019-03-16T10:32:15.730Z,15396
2019-03-16T10:33:18.509Z,15160
2019-03-16T10:34:25.629Z,14848
2019-03-16T10:35:27.732Z,14768
2019-03-16T10:36:29.780Z,16232
2019-03-16T10:37:31.829Z,17776
2019-03-16T10:38:33.864Z,18656
2019-03-16T10:39:35.905Z,19392
2019-03-16T10:40:38.038Z,19968
2019-03-16T10:41:40.068Z,19168
2019-03-16T10:42:42.100Z,17948
2019-03-16T10:43:44.174Z,17052
2019-03-16T10:44:46.219Z,16668
2019-03-16T10:45:48.249Z,16288
2019-03-16T10:46:50.568Z,14412
2019-03-16T10:47:52.704Z,13188
2019-03-16T10:48:54.722Z,12240
2019-03-16T10:49:56.764Z,11132
2019-03-16T10:50:59.626Z,10660
2019-03-16T10:52:06.359Z,10148
2019-03-16T10:53:08.407Z,10496
2019-03-16T10:54:10.753Z,10736
2019-03-16T10:55:12.826Z,10812
2019-03-16T10:56:14.885Z,10840
2019-03-16T10:57:17.215Z,10216
2019-03-16T10:58:19.258Z,10480
2019-03-16T10:59:21.303Z,11152
2019-03-16T11:00:23.390Z,11648
2019-03-16T11:01:25.428Z,12136
2019-03-16T11:02:27.475Z,13304
2019-03-16T11:03:29.526Z,12748
2019-03-16T11:04:31.564Z,11448
2019-03-16T11:05:33.698Z,11504
2019-03-16T11:06:35.733Z,11812
2019-03-16T11:07:37.788Z,12452
2019-03-16T11:08:39.811Z,12888
2019-03-16T11:09:41.955Z,12940
2019-03-16T11:10:44.079Z,12572
2019-03-16T11:11:46.402Z,13252
2019-03-16T11:12:48.449Z,14128
2019-03-16T11:13:50.541Z,14592
2019-03-16T11:14:52.582Z,14464
2019-03-16T11:15:54.614Z,13504
2019-03-16T11:16:56.657Z,11948
2019-03-16T11:17:58.720Z,11260
2019-03-16T11:19:00.829Z,11808
2019-03-16T11:20:02.874Z,12268
2019-03-16T11:21:05.338Z,11948
2019-03-16T11:22:07.360Z,11688
2019-03-16T11:23:09.686Z,12160
2019-03-16T11:24:11.731Z,11784
2019-03-16T11:25:13.754Z,11452
2019-03-16T11:26:15.789Z,12164
2019-03-16T11:27:17.832Z,12588
2019-03-16T11:28:19.888Z,12848
2019-03-16T11:29:21.947Z,13304
2019-03-16T11:30:24.370Z,13524
2019-03-16T11:31:26.393Z,13228
2019-03-16T11:32:28.427Z,12580
2019-03-16T11:33:30.473Z,11892
2019-03-16T11:34:32.510Z,10980
2019-03-16T11:35:34.558Z,10284
2019-03-16T11:36:36.592Z,9156
2019-03-16T11:37:39.330Z,8588
2019-03-16T11:38:41.401Z,8404
2019-03-16T11:39:43.995Z,8040
2019-03-16T11:40:46.059Z,6912
2019-03-16T11:41:48.093Z,6984
2019-03-16T11:42:50.179Z,8320
2019-03-16T11:43:52.499Z,9696
2019-03-16T11:44:54.834Z,9852
2019-03-16T11:45:56.888Z,10860
2019-03-16T11:46:58.915Z,10976
2019-03-16T11:48:00.970Z,10836
2019-03-16T11:49:03.008Z,10872
2019-03-16T11:50:05.713Z,10864
2019-03-16T11:51:07.738Z,10716
2019-03-16T11:52:09.796Z,10468
2019-03-16T11:53:11.835Z,10344
2019-03-16T11:54:13.869Z,10268
2019-03-16T11:55:15.941Z,10196
2019-03-16T11:56:18.552Z,10132
2019-03-16T11:57:21.030Z,10168
2019-03-16T11:58:23.071Z,10320
2019-03-16T11:59:25.098Z,10304
2019-03-16T12:00:27.187Z,10356
2019-03-16T12:01:29.245Z,10420
2019-03-16T12:02:31.664Z,10640
2019-03-16T12:03:33.714Z,11044
2019-03-16T12:04:36.031Z,11604
2019-03-16T12:05:38.745Z,12024
2019-03-16T12:06:40.836Z,12164
2019-03-16T12:07:42.859Z,12196
2019-03-16T12:08:44.905Z,12136
2019-03-16T12:09:46.941Z,12024
2019-03-16T12:10:49.303Z,11972
2019-03-16T12:11:51.677Z,11876
2019-03-16T12:12:53.706Z,11752
2019-03-16T12:13:55.738Z,11948
2019-03-16T12:14:57.768Z,12256
2019-03-16T12:15:59.815Z,11948
2019-03-16T12:17:01.845Z,10188
2019-03-16T12:18:03.910Z,9392
2019-03-16T12:19:05.961Z,8772
2019-03-16T12:20:07.975Z,8320
2019-03-16T12:21:10.321Z,8212
2019-03-16T12:22:12.363Z,8612
2019-03-16T12:23:14.681Z,8780
2019-03-16T12:24:16.701Z,9100
2019-03-16T12:25:18.748Z,9852
2019-03-16T12:26:20.788Z,11980
2019-03-16T12:27:22.909Z,13556
2019-03-16T12:28:24.969Z,14476
2019-03-16T12:29:33.742Z,15976
2019-03-16T12:30:36.450Z,16412
2019-03-16T12:31:38.486Z,16656
2019-03-16T12:32:40.542Z,16512
2019-03-16T12:33:42.576Z,15304
2019-03-16T12:34:44.643Z,14292
2019-03-16T12:35:46.699Z,13220
2019-03-16T12:36:48.769Z,11980
2019-03-16T12:37:50.798Z,10212
2019-03-16T12:38:53.110Z,10096
2019-03-16T12:39:55.154Z,10124
2019-03-16T12:40:57.197Z,12384
2019-03-16T12:41:59.241Z,12060
2019-03-16T12:43:01.288Z,11160
2019-03-16T12:44:03.402Z,10712
2019-03-16T12:45:06.301Z,12444
2019-03-16T12:46:08.393Z,10660
2019-03-16T12:47:10.723Z,10396
2019-03-16T12:48:12.756Z,11104
2019-03-16T12:49:14.817Z,13312
2019-03-16T12:50:16.857Z,13300
2019-03-16T12:51:19.417Z,13272
2019-03-16T12:52:21.849Z,12512
2019-03-16T12:53:23.867Z,13236
2019-03-16T12:54:25.912Z,14712
2019-03-16T12:55:27.967Z,15304
2019-03-16T12:56:30.039Z,15860
2019-03-16T12:57:32.084Z,16372
2019-03-16T12:58:34.350Z,16248
2019-03-16T12:59:46.119Z,16176
2019-03-16T13:00:49.591Z,16088
2019-03-16T13:01:51.639Z,16264
2019-03-16T13:02:54.144Z,17456
2019-03-16T13:03:56.183Z,16084
2019-03-16T13:04:58.229Z,13344
2019-03-16T13:06:00.259Z,10928
2019-03-16T13:07:02.451Z,8732
2019-03-16T13:08:04.490Z,6792
2019-03-16T13:09:06.513Z,6264
2019-03-16T13:10:08.558Z,8048
2019-03-16T13:11:10.760Z,8536
2019-03-16T13:12:12.796Z,10080
2019-03-16T13:13:14.833Z,12248
2019-03-16T13:14:16.883Z,12328
2019-03-16T13:15:18.911Z,11840
2019-03-16T13:16:21.038Z,11228
2019-03-16T13:17:23.084Z,11216
2019-03-16T13:18:25.174Z,13368
2019-03-16T13:19:27.213Z,15348
2019-03-16T13:20:29.302Z,15704
2019-03-16T13:21:31.355Z,14896
2019-03-16T13:22:33.394Z,15056
2019-03-16T13:23:35.433Z,12452
2019-03-16T13:24:37.467Z,10592
2019-03-16T13:25:39.771Z,11028
2019-03-16T13:26:41.859Z,8284
2019-03-16T13:27:43.899Z,7720
2019-03-16T13:28:46.319Z,9552
2019-03-16T13:29:58.373Z,10052
2019-03-16T13:31:01.475Z,9500
2019-03-16T13:32:03.504Z,6392
2019-03-16T13:33:05.536Z,6228
2019-03-16T13:34:07.653Z,5692
2019-03-16T13:35:09.670Z,5340
2019-03-16T13:36:11.848Z,4988
2019-03-16T13:37:13.886Z,5268
2019-03-16T13:38:15.980Z,5504
2019-03-16T13:39:18.031Z,6488
2019-03-16T13:40:20.217Z,6748
2019-03-16T13:41:22.253Z,8348
2019-03-16T13:42:24.299Z,7320
2019-03-16T13:43:26.729Z,9048
2019-03-16T13:44:29.031Z,11756
2019-03-16T13:45:31.133Z,11880
2019-03-16T13:46:33.164Z,12820
2019-03-16T13:47:35.213Z,12624
2019-03-16T13:48:37.529Z,10376
2019-03-16T13:49:39.848Z,9960
2019-03-16T13:50:41.986Z,11112
2019-03-16T13:51:45.079Z,10432
2019-03-16T13:52:47.140Z,8248
2019-03-16T13:53:49.194Z,7640
2019-03-16T13:54:51.258Z,5712
2019-03-16T13:55:55.011Z,5124
2019-03-16T13:56:57.058Z,6760
2019-03-16T13:57:59.120Z,6632
2019-03-16T13:59:01.178Z,6512
2019-03-16T14:00:11.505Z,6480
2019-03-16T14:01:14.498Z,6604
2019-03-16T14:02:17.160Z,7464
2019-03-16T14:03:20.184Z,7656
2019-03-16T14:04:22.241Z,7000
2019-03-16T14:05:24.294Z,7136
2019-03-16T14:06:26.329Z,7620
2019-03-16T14:07:29.419Z,7276
2019-03-16T14:08:31.456Z,6992
2019-03-16T14:09:33.867Z,6212
2019-03-16T14:10:37.153Z,4940
2019-03-16T14:11:41.272Z,3668
2019-03-16T14:12:43.746Z,3260
2019-03-16T14:13:45.804Z,3260
2019-03-16T14:14:49.165Z,3856
2019-03-16T14:15:51.227Z,4256
2019-03-16T14:16:53.292Z,4224